Time;durP1;ratioP1;P1;durP2;ratioP2;P2;SDS_P1;SDS_P2;PMS_P1;PMS_P2;Temp;Humidity;BMP_temperature;BMP_pressure;BME280_temperature;BME280_humidity;BME280_pressure;Samples;Min_cycle;Max_cycle;Signal;HPM_P1;HPM_P2
2022/02/23 00:00:24;;;;;;;356.47;340.33;;;5.50;99.90;;;;;;4362427;33;20180;-65
2022/02/23 00:02:51;;;;;;;384.87;366.70;;;5.40;99.90;;;;;;4362578;32;20179;-63
2022/02/23 00:05:18;;;;;;;381.83;363.53;;;5.40;99.90;;;;;;4358494;32;20142;-65
2022/02/23 00:07:45;;;;;;;377.40;360.33;;;5.50;99.90;;;;;;4347787;33;20141;-64
2022/02/23 00:10:19;;;;;;;365.90;348.93;;;5.40;99.90;;;;;;4359068;32;20132;-65
2022/02/23 00:12:46;;;;;;;372.90;356.03;;;5.40;99.90;;;;;;4362209;32;20573;-67
2022/02/23 00:15:13;;;;;;;357.23;340.13;;;5.50;99.90;;;;;;4363911;32;20220;-68
2022/02/23 00:17:40;;;;;;;365.57;348.50;;;5.50;99.90;;;;;;4359890;32;20146;-66
2022/02/23 00:20:09;;;;;;;349.83;334.20;;;5.50;99.90;;;;;;4356047;33;20464;-65
2022/02/23 00:22:35;;;;;;;361.33;344.87;;;5.50;99.90;;;;;;4361799;33;20183;-65
2022/02/23 00:25:04;;;;;;;398.27;379.47;;;5.40;99.90;;;;;;4362174;33;20167;-65
2022/02/23 00:27:32;;;;;;;364.23;347.47;;;5.40;99.90;;;;;;4360861;33;20157;-62
2022/02/23 00:30:02;;;;;;;381.90;364.83;;;5.40;99.90;;;;;;4362287;32;20136;-65
2022/02/23 00:32:31;;;;;;;356.87;340.37;;;5.40;99.90;;;;;;4362005;32;20149;-67
2022/02/23 00:35:02;;;;;;;371.77;354.40;;;5.50;99.90;;;;;;4362469;32;20145;-62
2022/02/23 00:37:32;;;;;;;360.77;343.33;;;5.60;99.90;;;;;;4362365;33;20157;-63
2022/02/23 00:40:03;;;;;;;369.17;351.53;;;5.50;99.90;;;;;;4356014;32;20148;-64
2022/02/23 00:42:30;;;;;;;372.20;354.87;;;5.50;99.90;;;;;;4351813;32;20150;-65
2022/02/23 00:45:02;;;;;;;354.73;338.43;;;5.50;99.90;;;;;;4359836;33;20154;-63
2022/02/23 00:47:32;;;;;;;362.33;345.07;;;5.40;99.90;;;;;;4357043;33;20160;-63
2022/02/23 00:50:02;;;;;;;353.20;336.63;;;5.40;99.90;;;;;;4357737;32;20165;-65
2022/02/23 00:52:28;;;;;;;361.63;344.17;;;5.40;99.90;;;;;;4361805;32;20141;-63
2022/02/23 00:54:55;;;;;;;368.47;350.87;;;5.40;99.90;;;;;;4362064;32;20179;-67
2022/02/23 00:57:25;;;;;;;342.70;326.53;;;5.40;99.90;;;;;;4361845;32;20581;-63
2022/02/23 00:59:52;;;;;;;347.13;330.30;;;5.50;99.90;;;;;;4361055;33;20634;-63
2022/02/23 01:02:20;;;;;;;353.47;337.03;;;5.40;99.90;;;;;;4361927;33;20156;-63
2022/02/23 01:04:47;;;;;;;357.53;340.57;;;5.40;99.90;;;;;;4361380;33;20145;-65
2022/02/23 01:07:14;;;;;;;373.80;356.20;;;5.30;99.90;;;;;;4361163;32;20177;-63
2022/02/23 01:09:41;;;;;;;363.00;346.13;;;5.30;99.90;;;;;;4355763;32;20182;-63
2022/02/23 01:12:09;;;;;;;373.10;356.20;;;5.20;99.90;;;;;;4346621;33;20169;-63
2022/02/23 01:14:36;;;;;;;364.43;348.00;;;5.20;99.90;;;;;;4347064;33;20168;-65
2022/02/23 01:17:06;;;;;;;372.87;355.33;;;5.10;99.90;;;;;;4360403;32;20199;-64
2022/02/23 01:19:35;;;;;;;361.83;344.63;;;5.10;99.90;;;;;;4356538;32;20184;-66
2022/02/23 01:22:02;;;;;;;348.57;332.13;;;5.00;99.90;;;;;;4346637;33;20168;-65
2022/02/23 01:24:40;;;;;;;355.77;339.73;;;5.00;99.90;;;;;;4348479;32;20171;-65
2022/02/23 01:27:15;;;;;;;354.83;338.30;;;4.90;99.90;;;;;;4342328;33;20254;-64
2022/02/23 01:29:42;;;;;;;344.77;328.47;;;4.90;99.90;;;;;;4346808;33;20286;-64
2022/02/23 01:32:10;;;;;;;361.17;344.37;;;4.80;99.90;;;;;;4344835;33;20198;-64
2022/02/23 01:34:40;;;;;;;365.57;348.13;;;4.90;99.90;;;;;;4331710;33;20210;-64
2022/02/23 01:37:07;;;;;;;366.07;348.83;;;4.80;99.90;;;;;;4355013;32;20142;-64
2022/02/23 01:39:34;;;;;;;376.97;359.70;;;4.70;99.90;;;;;;4358204;32;20590;-64
2022/02/23 01:42:01;;;;;;;374.87;357.33;;;4.80;99.90;;;;;;4361315;32;20148;-64
2022/02/23 01:44:28;;;;;;;357.03;340.33;;;4.80;99.90;;;;;;4350368;32;20145;-64
2022/02/23 01:46:55;;;;;;;354.47;337.97;;;4.80;99.90;;;;;;4358446;33;20160;-64
2022/02/23 01:49:22;;;;;;;373.37;355.57;;;4.80;99.90;;;;;;4353431;33;20210;-65
2022/02/23 01:51:51;;;;;;;346.57;330.53;;;4.80;99.90;;;;;;4353150;33;20145;-64
2022/02/23 01:54:21;;;;;;;347.87;331.83;;;4.80;99.90;;;;;;4351193;32;20533;-64
2022/02/23 01:56:51;;;;;;;354.13;338.10;;;4.90;99.90;;;;;;4358450;33;20167;-67
2022/02/23 01:59:22;;;;;;;352.07;335.33;;;4.90;99.90;;;;;;4351739;32;20142;-63
2022/02/23 02:01:52;;;;;;;341.67;326.50;;;5.00;99.90;;;;;;4349196;32;20518;-66
2022/02/23 02:04:21;;;;;;;350.00;334.07;;;5.00;99.90;;;;;;4345971;33;20283;-65
2022/02/23 02:06:53;;;;;;;347.43;330.73;;;5.00;99.90;;;;;;4357756;33;20220;-64
2022/02/23 02:09:20;;;;;;;360.33;343.57;;;5.00;99.90;;;;;;4359966;33;20145;-63
2022/02/23 02:11:55;;;;;;;340.33;325.50;;;5.00;99.90;;;;;;4357433;33;20217;-65
2022/02/23 02:14:21;;;;;;;337.57;322.03;;;5.00;99.90;;;;;;4350149;32;20211;-66
2022/02/23 02:16:53;;;;;;;344.13;328.10;;;5.00;99.90;;;;;;4358292;33;20179;-66
2022/02/23 02:19:20;;;;;;;343.67;328.13;;;5.00;99.90;;;;;;4359904;33;20152;-67
2022/02/23 02:21:56;;;;;;;340.27;323.87;;;5.10;99.90;;;;;;4351397;32;20168;-67
2022/02/23 02:24:24;;;;;;;325.90;310.77;;;5.00;99.90;;;;;;4346730;33;20160;-66
2022/02/23 02:26:51;;;;;;;336.03;320.03;;;5.00;99.90;;;;;;4359631;32;20451;-64
2022/02/23 02:29:19;;;;;;;350.40;334.03;;;5.00;99.90;;;;;;4355047;33;20148;-65
2022/02/23 02:31:48;;;;;;;338.87;323.63;;;5.00;99.90;;;;;;4358180;33;20149;-65
2022/02/23 02:34:18;;;;;;;344.67;328.90;;;5.00;99.90;;;;;;4359699;33;20176;-65
2022/02/23 02:36:48;;;;;;;346.07;330.23;;;5.00;99.90;;;;;;4359076;32;20251;-66
2022/02/23 02:39:17;;;;;;;343.07;327.63;;;4.90;99.90;;;;;;4352810;32;20202;-67
2022/02/23 02:41:44;;;;;;;352.93;336.57;;;5.10;99.90;;;;;;4354496;33;20160;-66
2022/02/23 02:44:12;;;;;;;339.20;322.87;;;4.90;99.90;;;;;;4354877;33;20485;-67
2022/02/23 02:46:40;;;;;;;348.07;332.03;;;5.00;99.90;;;;;;4348198;33;20179;-67
2022/02/23 02:49:09;;;;;;;344.33;329.17;;;4.90;99.90;;;;;;4354809;33;20149;-64
2022/02/23 02:51:37;;;;;;;345.27;329.60;;;5.00;99.90;;;;;;4356965;32;20453;-67
2022/02/23 02:54:08;;;;;;;343.33;327.30;;;5.00;99.90;;;;;;4347344;33;20150;-65
2022/02/23 02:56:41;;;;;;;342.63;326.70;;;5.00;99.90;;;;;;4350956;33;20516;-65
2022/02/23 02:59:11;;;;;;;341.30;325.80;;;5.00;99.90;;;;;;4352617;33;20174;-67
2022/02/23 03:01:43;;;;;;;344.83;328.77;;;4.90;99.90;;;;;;4357803;33;20160;-64
2022/02/23 03:04:10;;;;;;;339.40;323.87;;;4.90;99.90;;;;;;4360261;33;20160;-65
2022/02/23 03:06:37;;;;;;;340.60;324.97;;;4.90;99.90;;;;;;4348787;33;20145;-65
2022/02/23 03:09:05;;;;;;;353.03;336.63;;;4.80;99.90;;;;;;4355859;33;20220;-65
2022/02/23 03:11:32;;;;;;;346.90;330.90;;;4.80;99.90;;;;;;4354982;33;20144;-66
2022/02/23 03:14:04;;;;;;;371.70;354.23;;;4.80;99.90;;;;;;4346890;33;20141;-64
2022/02/23 03:16:31;;;;;;;355.07;338.83;;;4.70;99.90;;;;;;4349456;33;20150;-65
2022/02/23 03:19:02;;;;;;;350.10;333.50;;;4.70;99.90;;;;;;4353413;33;20167;-65
2022/02/23 03:21:29;;;;;;;337.27;322.00;;;4.60;99.90;;;;;;4350335;33;20153;-65
2022/02/23 03:24:02;;;;;;;349.37;333.30;;;4.60;99.90;;;;;;4347427;33;20196;-66
2022/02/23 03:26:32;;;;;;;346.70;330.63;;;4.60;99.90;;;;;;4346048;33;20161;-67
2022/02/23 03:29:00;;;;;;;356.53;339.93;;;4.60;99.90;;;;;;4358435;33;20548;-66
2022/02/23 03:31:27;;;;;;;350.57;334.63;;;4.60;99.90;;;;;;4356669;33;20162;-64
2022/02/23 03:33:54;;;;;;;334.53;318.67;;;4.50;99.90;;;;;;4345257;33;20163;-67
2022/02/23 03:36:23;;;;;;;327.50;312.40;;;4.60;99.90;;;;;;4354819;33;20148;-68
2022/02/23 03:38:50;;;;;;;349.03;333.47;;;4.60;99.90;;;;;;4347664;33;20149;-67
2022/02/23 03:41:17;;;;;;;349.33;332.70;;;4.60;99.90;;;;;;4359369;33;20170;-68
2022/02/23 03:43:46;;;;;;;342.97;327.17;;;4.60;99.90;;;;;;4357415;33;20513;-67
2022/02/23 03:46:21;;;;;;;356.33;340.43;;;4.60;99.90;;;;;;4350889;33;20196;-66
2022/02/23 03:48:56;;;;;;;345.73;330.00;;;4.60;99.90;;;;;;4359539;32;20148;-66
2022/02/23 03:51:27;;;;;;;351.23;333.90;;;4.50;99.90;;;;;;4360795;33;20476;-66
2022/02/23 03:53:53;;;;;;;341.17;326.17;;;4.50;99.90;;;;;;4357700;32;20169;-63
2022/02/23 04:01:49;;;;;;;348.07;332.60;;;4.30;99.90;;;;;;4351152;32;21795;-65
2022/02/23 04:04:17;;;;;;;352.60;336.60;;;4.30;99.90;;;;;;4353260;33;20172;-67
2022/02/23 04:06:45;;;;;;;346.47;330.27;;;4.30;99.90;;;;;;4355355;33;20167;-67
2022/02/23 04:09:13;;;;;;;349.83;333.83;;;4.20;99.90;;;;;;4347758;33;20148;-67
2022/02/23 04:11:40;;;;;;;348.83;333.33;;;4.20;99.90;;;;;;4358684;33;20157;-67
2022/02/23 04:14:08;;;;;;;343.33;328.33;;;4.20;99.90;;;;;;4359020;32;20168;-66
2022/02/23 04:16:36;;;;;;;337.63;321.57;;;4.20;99.90;;;;;;4352543;33;20196;-65
2022/02/23 04:19:05;;;;;;;355.03;338.90;;;4.10;99.90;;;;;;4349418;32;20477;-64
2022/02/23 04:21:35;;;;;;;333.07;317.33;;;4.10;99.90;;;;;;4354268;33;20160;-66
2022/02/23 04:24:02;;;;;;;342.93;327.80;;;4.00;99.90;;;;;;4360597;33;20157;-64
2022/02/23 04:26:35;;;;;;;340.13;324.97;;;4.10;99.90;;;;;;4361675;33;20165;-65
2022/02/23 04:29:05;;;;;;;341.47;327.10;;;4.00;99.90;;;;;;4357620;32;20476;-63
2022/02/23 04:31:34;;;;;;;337.77;322.67;;;4.00;99.90;;;;;;4362191;32;20216;-65
2022/02/23 04:34:05;;;;;;;340.73;325.03;;;4.00;99.90;;;;;;4361758;32;20198;-65
2022/02/23 04:36:34;;;;;;;338.07;322.80;;;3.90;99.90;;;;;;4362367;33;20208;-66
2022/02/23 04:39:00;;;;;;;339.77;324.33;;;3.90;99.90;;;;;;4361875;32;20220;-67
2022/02/23 04:41:29;;;;;;;340.33;325.37;;;3.90;99.90;;;;;;4361286;32;20199;-63
2022/02/23 04:44:04;;;;;;;345.33;330.10;;;3.80;99.90;;;;;;4361035;32;20240;-65
2022/02/23 04:46:31;;;;;;;333.80;318.57;;;3.80;99.90;;;;;;4350499;33;20185;-65
2022/02/23 04:48:59;;;;;;;323.50;309.13;;;3.70;99.90;;;;;;4361556;33;20171;-67
2022/02/23 04:51:29;;;;;;;335.30;320.30;;;3.70;99.90;;;;;;4361735;32;20175;-67
2022/02/23 04:54:02;;;;;;;332.97;317.37;;;3.70;99.90;;;;;;4361651;33;20213;-65
2022/02/23 04:56:31;;;;;;;320.97;306.40;;;3.60;99.90;;;;;;4357805;33;20149;-66
2022/02/23 04:59:01;;;;;;;325.03;310.90;;;3.60;99.90;;;;;;4349427;32;20183;-65
2022/02/23 05:01:28;;;;;;;329.30;314.90;;;3.60;99.90;;;;;;4361409;33;20171;-67
2022/02/23 05:03:55;;;;;;;320.27;306.17;;;3.60;99.90;;;;;;4361595;32;20175;-65
2022/02/23 05:06:21;;;;;;;317.07;302.90;;;3.50;99.90;;;;;;4357032;33;20235;-66
2022/02/23 05:08:57;;;;;;;327.77;313.03;;;3.50;99.90;;;;;;4353353;32;20145;-65
2022/02/23 05:11:24;;;;;;;315.03;300.90;;;3.50;99.90;;;;;;4361950;32;20191;-66
2022/02/23 05:13:52;;;;;;;315.13;300.40;;;3.50;99.90;;;;;;4361703;33;20153;-66
2022/02/23 05:16:21;;;;;;;311.97;297.07;;;3.60;99.90;;;;;;4359268;32;20214;-65
2022/02/23 05:18:48;;;;;;;319.70;304.77;;;3.50;99.90;;;;;;4359969;33;20184;-67
2022/02/23 05:21:18;;;;;;;333.97;319.27;;;3.50;99.90;;;;;;4353751;33;20203;-65
2022/02/23 05:23:45;;;;;;;316.00;301.20;;;3.40;99.90;;;;;;4355052;33;20185;-64
2022/02/23 05:26:14;;;;;;;313.90;299.73;;;3.40;99.90;;;;;;4349795;33;20168;-66
2022/02/23 05:28:41;;;;;;;322.13;308.07;;;3.40;99.90;;;;;;4357288;32;20148;-65
2022/02/23 05:31:08;;;;;;;314.27;300.03;;;3.30;99.90;;;;;;4359075;32;20552;-64
2022/02/23 05:33:37;;;;;;;321.77;307.20;;;3.30;99.90;;;;;;4360667;33;20179;-67
2022/02/23 05:36:05;;;;;;;317.73;303.53;;;3.30;99.90;;;;;;4348891;32;20158;-66
2022/02/23 05:38:31;;;;;;;328.13;313.57;;;3.20;99.90;;;;;;4346656;33;20160;-67
2022/02/23 05:40:58;;;;;;;333.57;318.43;;;3.20;99.90;;;;;;4357817;33;20167;-67
2022/02/23 05:43:26;;;;;;;312.57;299.03;;;3.20;99.90;;;;;;4358107;32;20199;-67
2022/02/23 05:45:53;;;;;;;311.93;298.07;;;3.20;99.90;;;;;;4351159;32;20172;-66
2022/02/23 05:48:20;;;;;;;317.40;302.80;;;3.20;99.90;;;;;;4355731;32;20483;-66
2022/02/23 05:50:50;;;;;;;295.80;282.90;;;3.20;99.90;;;;;;4358237;33;20167;-63
2022/02/23 05:53:17;;;;;;;302.43;288.40;;;3.20;99.90;;;;;;4361787;32;20553;-65
2022/02/23 05:55:44;;;;;;;301.97;288.50;;;3.10;99.90;;;;;;4359307;32;20455;-66
2022/02/23 05:58:11;;;;;;;309.23;294.50;;;3.20;99.90;;;;;;4346534;33;20163;-65
2022/02/23 06:00:39;;;;;;;301.77;288.00;;;3.20;99.90;;;;;;4356864;33;20648;-66
2022/02/23 06:03:10;;;;;;;308.10;294.10;;;3.20;99.90;;;;;;4361194;32;20252;-64
2022/02/23 06:05:37;;;;;;;313.27;298.40;;;3.20;99.90;;;;;;4355989;32;20161;-67
2022/02/23 06:08:04;;;;;;;310.63;296.03;;;3.30;99.90;;;;;;4358223;32;20160;-63
2022/02/23 06:10:31;;;;;;;306.67;292.17;;;3.30;99.90;;;;;;4356146;32;20485;-67
2022/02/23 06:15:40;;;;;;;310.23;296.40;;;3.30;99.90;;;;;;4353275;32;20166;-64
2022/02/23 06:18:07;;;;;;;305.27;290.33;;;3.20;99.90;;;;;;4358476;32;20480;-65
2022/02/23 06:20:34;;;;;;;316.50;302.27;;;3.20;99.90;;;;;;4358480;33;20167;-63
2022/02/23 06:23:04;;;;;;;316.80;302.50;;;3.20;99.90;;;;;;4360375;33;20166;-67
2022/02/23 06:25:32;;;;;;;306.60;292.87;;;3.20;99.90;;;;;;4358035;33;20492;-67
2022/02/23 06:28:02;;;;;;;297.67;284.70;;;3.10;99.90;;;;;;4358578;32;20492;-65
2022/02/23 06:30:29;;;;;;;288.00;275.07;;;3.10;99.90;;;;;;4360342;33;20156;-66
2022/02/23 06:32:57;;;;;;;311.27;297.13;;;3.20;99.90;;;;;;4358955;33;20220;-63
2022/02/23 06:35:25;;;;;;;291.83;278.93;;;3.20;99.90;;;;;;4359092;32;20149;-64
2022/02/23 06:37:51;;;;;;;294.23;281.30;;;3.20;99.90;;;;;;4356311;32;20656;-65
2022/02/23 06:40:19;;;;;;;317.03;301.67;;;3.10;99.90;;;;;;4359802;32;20168;-64
2022/02/23 06:42:47;;;;;;;301.93;287.57;;;3.10;99.90;;;;;;4359064;32;20169;-67
2022/02/23 06:45:13;;;;;;;314.53;299.83;;;3.10;99.90;;;;;;4359310;33;20469;-66
2022/02/23 06:47:40;;;;;;;299.70;285.60;;;3.10;99.90;;;;;;4357036;33;20156;-65
2022/02/23 06:50:16;;;;;;;302.37;288.60;;;3.10;99.90;;;;;;4357893;33;20156;-64
2022/02/23 06:52:46;;;;;;;293.53;280.03;;;3.10;99.90;;;;;;4347113;32;20485;-65
2022/02/23 06:55:15;;;;;;;303.23;289.77;;;3.10;99.90;;;;;;4350679;33;20204;-66
2022/02/23 06:57:43;;;;;;;290.13;277.10;;;3.10;99.90;;;;;;4345787;33;20158;-66
2022/02/23 07:00:15;;;;;;;298.57;284.93;;;3.20;99.90;;;;;;4350091;33;20167;-66
2022/02/23 07:02:41;;;;;;;317.87;303.63;;;3.20;99.90;;;;;;4358150;33;20474;-65
2022/02/23 07:05:10;;;;;;;313.30;299.37;;;3.20;99.90;;;;;;4360211;33;20515;-63
2022/02/23 07:07:37;;;;;;;308.27;293.60;;;3.20;99.90;;;;;;4357362;33;20488;-65
2022/02/23 07:10:10;;;;;;;295.07;281.33;;;3.20;99.90;;;;;;4359327;32;20224;-66
2022/02/23 07:12:37;;;;;;;317.00;302.50;;;3.20;99.90;;;;;;4356869;33;20525;-66
2022/02/23 07:15:04;;;;;;;298.77;285.57;;;3.30;99.90;;;;;;4358809;33;20177;-64
2022/02/23 07:17:31;;;;;;;317.40;303.53;;;3.30;99.90;;;;;;4358004;33;20144;-64
2022/02/23 07:19:58;;;;;;;307.10;293.07;;;3.30;99.90;;;;;;4358087;33;20171;-63
2022/02/23 07:22:29;;;;;;;316.77;302.43;;;3.30;99.90;;;;;;4358389;32;20617;-64
2022/02/23 07:24:56;;;;;;;297.87;283.67;;;3.40;99.90;;;;;;4361284;33;20156;-65
2022/02/23 07:27:23;;;;;;;296.03;283.07;;;3.40;99.90;;;;;;4359531;32;20485;-63
2022/02/23 07:29:50;;;;;;;301.43;288.27;;;3.50;99.90;;;;;;4355182;32;20663;-67
2022/02/23 07:32:16;;;;;;;304.17;290.70;;;3.50;99.90;;;;;;4361993;33;20202;-65
2022/02/23 07:34:47;;;;;;;320.33;306.30;;;3.60;99.90;;;;;;4362896;32;20141;-65
2022/02/23 07:37:14;;;;;;;299.00;284.80;;;3.70;99.90;;;;;;4362854;32;20146;-62
2022/02/23 07:39:43;;;;;;;322.43;308.17;;;3.80;99.90;;;;;;4359484;32;20141;-63
2022/02/23 07:42:10;;;;;;;302.43;288.67;;;3.80;99.90;;;;;;4362478;32;20884;-63
2022/02/23 07:44:37;;;;;;;306.80;292.70;;;3.80;99.90;;;;;;4362757;33;20184;-62
2022/02/23 07:47:04;;;;;;;328.30;312.63;;;3.90;99.90;;;;;;4362610;32;20172;-63
2022/02/23 07:49:31;;;;;;;321.47;306.73;;;3.90;99.90;;;;;;4362213;32;20204;-64
2022/02/23 07:51:59;;;;;;;311.37;297.63;;;4.00;99.90;;;;;;4362301;32;20561;-65
2022/02/23 07:54:26;;;;;;;340.40;324.33;;;4.00;99.90;;;;;;4362148;33;20464;-63
2022/02/23 07:56:56;;;;;;;313.67;298.87;;;4.10;99.90;;;;;;4361704;33;20194;-64
2022/02/23 07:59:23;;;;;;;328.30;312.93;;;4.20;99.90;;;;;;4360491;32;20172;-65
2022/02/23 08:01:52;;;;;;;336.23;320.77;;;4.30;99.90;;;;;;4362398;32;20231;-64
2022/02/23 08:04:20;;;;;;;350.47;333.87;;;4.40;99.90;;;;;;4362334;32;20247;-64
2022/02/23 08:06:47;;;;;;;311.40;296.97;;;4.60;99.90;;;;;;4361997;33;20195;-65
2022/02/23 08:09:14;;;;;;;334.13;318.77;;;4.70;99.90;;;;;;4358177;32;20227;-63
2022/02/23 08:11:41;;;;;;;342.67;327.37;;;4.70;99.90;;;;;;4362170;33;20639;-64
2022/02/23 08:14:11;;;;;;;338.43;322.33;;;4.70;99.90;;;;;;4361753;32;20216;-65
2022/02/23 08:19:35;;;;;;;332.50;316.30;;;4.90;99.90;;;;;;4359715;32;20187;-64
2022/02/23 08:22:05;;;;;;;324.20;309.03;;;5.00;99.90;;;;;;4360627;32;20183;-62
2022/02/23 08:24:34;;;;;;;343.27;327.30;;;5.10;99.90;;;;;;4362214;32;20146;-63
2022/02/23 08:27:02;;;;;;;337.83;321.83;;;5.30;99.90;;;;;;4361577;32;20163;-66
2022/02/23 08:29:30;;;;;;;348.27;332.57;;;5.40;99.90;;;;;;4357219;33;20165;-64
2022/02/23 08:31:57;;;;;;;358.53;341.67;;;5.50;99.90;;;;;;4360049;32;20204;-64
2022/02/23 08:34:26;;;;;;;355.37;339.50;;;5.60;99.90;;;;;;4361067;32;20544;-62
2022/02/23 08:36:53;;;;;;;375.00;357.67;;;5.60;99.90;;;;;;4361832;33;20145;-63
2022/02/23 08:39:21;;;;;;;354.37;337.87;;;5.90;99.90;;;;;;4362625;32;20145;-63
2022/02/23 08:41:48;;;;;;;348.87;333.07;;;5.90;99.90;;;;;;4359879;33;20145;-63
2022/02/23 08:44:15;;;;;;;352.87;337.13;;;6.00;99.90;;;;;;4361668;32;20187;-65
2022/02/23 08:46:45;;;;;;;367.40;350.67;;;6.10;99.90;;;;;;4361428;32;20790;-62
2022/02/23 08:49:13;;;;;;;356.63;340.60;;;6.20;99.90;;;;;;4357888;33;20227;-65
2022/02/23 08:51:42;;;;;;;346.03;330.07;;;6.30;99.90;;;;;;4360224;32;20168;-62
2022/02/23 08:54:10;;;;;;;354.47;338.47;;;6.40;99.90;;;;;;4361111;32;20573;-63
2022/02/23 08:56:37;;;;;;;350.13;333.90;;;6.60;99.90;;;;;;4361375;32;20164;-65
2022/02/23 08:59:03;;;;;;;340.33;325.17;;;6.60;99.90;;;;;;4361279;32;20585;-66
2022/02/23 09:01:30;;;;;;;352.33;335.73;;;6.70;99.90;;;;;;4358824;32;20276;-63
2022/02/23 09:04:01;;;;;;;360.57;344.03;;;6.80;99.90;;;;;;4360898;33;20184;-64
2022/02/23 09:06:28;;;;;;;357.70;341.63;;;6.90;99.90;;;;;;4359861;32;20198;-64
2022/02/23 09:08:55;;;;;;;355.90;339.70;;;7.00;99.90;;;;;;4360968;33;20145;-64
2022/02/23 09:11:25;;;;;;;346.17;330.80;;;7.00;99.90;;;;;;4360638;32;20226;-64
2022/02/23 09:13:52;;;;;;;350.10;334.13;;;7.00;99.90;;;;;;4361458;32;20159;-64
2022/02/23 09:16:19;;;;;;;360.63;343.07;;;7.10;99.90;;;;;;4361324;32;20191;-64
2022/02/23 09:18:46;;;;;;;349.67;334.00;;;7.20;99.90;;;;;;4361305;33;20157;-63
2022/02/23 09:21:15;;;;;;;366.17;349.53;;;7.20;99.90;;;;;;4357014;33;20157;-63
2022/02/23 09:23:41;;;;;;;370.67;353.93;;;7.20;99.90;;;;;;4360987;33;20600;-63
2022/02/23 09:26:08;;;;;;;350.13;334.63;;;7.30;99.90;;;;;;4360645;33;20231;-64
2022/02/23 09:28:37;;;;;;;374.10;357.17;;;7.30;99.90;;;;;;4360870;33;20508;-66
2022/02/23 09:31:06;;;;;;;340.80;325.53;;;7.40;99.90;;;;;;4357889;32;20145;-67
2022/02/23 09:33:33;;;;;;;364.03;347.00;;;7.50;99.90;;;;;;4361368;32;20148;-64
2022/02/23 09:36:02;;;;;;;363.40;347.43;;;7.50;99.90;;;;;;4360572;33;20144;-64
2022/02/23 09:38:31;;;;;;;355.43;339.60;;;7.60;99.90;;;;;;4359607;32;20206;-66
2022/02/23 09:41:00;;;;;;;344.07;328.53;;;7.60;99.90;;;;;;4359639;32;20670;-64
2022/02/23 09:43:28;;;;;;;363.33;346.97;;;7.70;99.90;;;;;;4360687;32;20216;-64
2022/02/23 09:45:56;;;;;;;357.13;340.50;;;7.80;99.90;;;;;;4360712;32;20192;-64
2022/02/23 09:48:24;;;;;;;353.87;337.20;;;7.80;99.90;;;;;;4361561;32;20232;-64
2022/02/23 09:50:51;;;;;;;369.90;353.33;;;7.90;99.90;;;;;;4356952;33;20180;-64
2022/02/23 09:53:21;;;;;;;355.70;338.77;;;7.90;99.90;;;;;;4360027;32;20251;-63
2022/02/23 09:55:50;;;;;;;376.33;359.23;;;8.00;99.90;;;;;;4361329;32;20216;-63
2022/02/23 09:58:24;;;;;;;366.30;349.67;;;8.00;99.90;;;;;;4360719;32;20179;-63
2022/02/23 10:00:51;;;;;;;369.40;352.80;;;8.00;99.90;;;;;;4356643;33;20209;-64
2022/02/23 10:03:19;;;;;;;374.03;357.20;;;8.10;99.90;;;;;;4357736;32;20141;-66
2022/02/23 10:05:52;;;;;;;385.97;367.57;;;8.10;99.90;;;;;;4360386;33;20159;-66
2022/02/23 10:08:18;;;;;;;370.07;352.93;;;8.20;99.90;;;;;;4360628;32;20213;-64
2022/02/23 10:10:50;;;;;;;374.60;357.20;;;8.20;99.90;;;;;;4360934;32;20446;-67
2022/02/23 10:13:26;;;;;;;373.33;355.70;;;8.30;99.90;;;;;;4358609;32;20637;-65
2022/02/23 10:15:54;;;;;;;379.63;362.13;;;8.30;99.90;;;;;;4357489;32;20165;-63
2022/02/23 10:18:20;;;;;;;362.87;346.43;;;8.40;99.90;;;;;;4360072;33;20145;-63
2022/02/23 10:20:51;;;;;;;371.67;353.43;;;8.40;99.90;;;;;;4321221;32;1686130;-63
2022/02/23 10:23:20;;;;;;;367.60;350.53;;;8.40;99.90;;;;;;4375597;32;20585;-64
2022/02/23 10:25:53;;;;;;;354.17;337.43;;;8.40;99.90;;;;;;4376568;32;20201;-65
2022/02/23 10:28:24;;;;;;;392.40;374.47;;;8.40;99.90;;;;;;4375747;32;20212;-64
2022/02/23 10:30:57;;;;;;;367.47;350.73;;;8.50;99.90;;;;;;4375032;32;20158;-64
2022/02/23 10:33:26;;;;;;;374.67;357.17;;;8.50;99.90;;;;;;4373568;32;20256;-65
2022/02/23 10:35:55;;;;;;;371.53;354.53;;;8.60;99.90;;;;;;4375582;32;20161;-64
2022/02/23 10:38:24;;;;;;;374.23;356.90;;;8.70;99.90;;;;;;4374522;32;20634;-64
2022/02/23 10:40:54;;;;;;;376.03;358.03;;;8.70;99.90;;;;;;4376279;32;20216;-65
2022/02/23 10:43:27;;;;;;;368.37;351.60;;;8.80;99.90;;;;;;4371331;32;20163;-64
2022/02/23 10:46:03;;;;;;;362.07;345.37;;;8.80;99.90;;;;;;4374826;32;20595;-64
2022/02/23 10:48:36;;;;;;;355.57;339.00;;;8.90;99.90;;;;;;4369157;32;20545;-66
2022/02/23 10:51:04;;;;;;;328.47;313.73;;;8.90;99.90;;;;;;4375290;32;20201;-68
2022/02/23 10:53:32;;;;;;;362.77;346.03;;;8.90;99.90;;;;;;4366101;32;20168;-65
2022/02/23 10:56:01;;;;;;;348.57;332.17;;;8.90;99.90;;;;;;4360565;33;20148;-64
2022/02/23 10:58:35;;;;;;;341.93;325.80;;;9.00;99.90;;;;;;4359873;33;20181;-64
2022/02/23 11:01:04;;;;;;;352.20;336.23;;;9.00;99.90;;;;;;4361486;32;20179;-66
2022/02/23 11:03:31;;;;;;;351.70;335.70;;;9.10;99.90;;;;;;4360446;33;20184;-65
2022/02/23 11:05:58;;;;;;;347.87;331.90;;;9.10;99.90;;;;;;4360414;33;20200;-64
2022/02/23 11:08:25;;;;;;;352.93;336.47;;;9.20;99.90;;;;;;4360202;33;20183;-64
2022/02/23 11:10:51;;;;;;;358.70;342.87;;;9.20;99.90;;;;;;4362314;32;20177;-64
2022/02/23 11:13:21;;;;;;;356.13;340.53;;;9.40;99.90;;;;;;4360471;32;20218;-65
2022/02/23 11:15:51;;;;;;;325.33;310.73;;;9.40;99.90;;;;;;4360758;32;20645;-66
2022/02/23 11:18:19;;;;;;;344.57;329.43;;;9.50;99.90;;;;;;4360476;32;20192;-65
2022/02/23 11:20:47;;;;;;;339.57;324.80;;;9.60;99.90;;;;;;4362276;32;20200;-66
2022/02/23 11:23:18;;;;;;;351.40;335.57;;;9.70;99.90;;;;;;4360108;32;20179;-64
2022/02/23 11:25:51;;;;;;;348.60;332.53;;;9.70;99.90;;;;;;4360263;32;20165;-64
2022/02/23 11:28:23;;;;;;;321.63;307.13;;;9.70;99.90;;;;;;4360405;32;20148;-65
2022/02/23 11:30:52;;;;;;;316.70;302.43;;;9.70;99.90;;;;;;4361541;32;20237;-64
2022/02/23 11:33:43;;;;;;;313.90;300.07;;;9.80;99.90;;;;;;4362191;32;20157;-64
2022/02/23 11:36:19;;;;;;;327.60;312.33;;;9.80;99.90;;;;;;4360076;32;20163;-64
2022/02/23 11:38:48;;;;;;;322.23;307.97;;;9.70;99.90;;;;;;4360192;33;20207;-64
2022/02/23 11:41:23;;;;;;;301.83;288.57;;;9.70;99.90;;;;;;4363872;32;20157;-65
2022/02/23 11:43:57;;;;;;;321.23;307.30;;;9.70;99.90;;;;;;4375753;32;20152;-64
2022/02/23 11:46:24;;;;;;;308.43;295.00;;;9.70;99.90;;;;;;4374839;32;20192;-65
2022/02/23 11:48:56;;;;;;;324.93;310.57;;;9.80;99.90;;;;;;4374890;32;20236;-64
2022/02/23 11:51:28;;;;;;;335.20;320.30;;;9.80;99.90;;;;;;4369527;32;20179;-64
2022/02/23 11:53:56;;;;;;;337.13;322.57;;;9.80;99.90;;;;;;4359851;33;20473;-64
2022/02/23 11:56:23;;;;;;;349.37;333.73;;;9.80;99.90;;;;;;4360123;33;20171;-67
2022/02/23 11:58:52;;;;;;;347.00;331.47;;;9.90;99.90;;;;;;4360292;32;20231;-66
2022/02/23 12:01:21;;;;;;;344.13;328.87;;;10.10;99.90;;;;;;4362650;32;20220;-67
2022/02/23 12:04:08;;;;;;;319.93;305.73;;;10.10;99.90;;;;;;4359898;32;20165;-63
2022/02/23 12:07:15;;;;;;;324.53;310.47;;;10.40;99.90;;;;;;4356913;32;20198;-65
2022/02/23 12:09:48;;;;;;;329.40;315.30;;;10.50;99.90;;;;;;4372749;32;20584;-64
2022/02/23 12:12:31;;;;;;;308.20;294.50;;;10.40;99.90;;;;;;4361355;32;20176;-64
2022/02/23 12:15:03;;;;;;;339.33;324.93;;;10.50;99.90;;;;;;4363195;32;20231;-64
2022/02/23 12:17:58;;;;;;;302.47;289.33;;;10.60;99.90;;;;;;4360844;32;20235;-65
2022/02/23 12:20:51;;;;;;;306.53;293.43;;;10.60;99.90;;;;;;4366185;32;20210;-64
2022/02/23 12:23:37;;;;;;;317.43;303.90;;;10.60;99.90;;;;;;4366410;32;20564;-64
2022/02/23 12:26:29;;;;;;;321.00;307.20;;;10.60;99.90;;;;;;4362542;32;20169;-64
2022/02/23 12:28:58;;;;;;;306.67;293.53;;;10.70;99.90;;;;;;4362578;32;20507;-64
2022/02/23 12:31:30;;;;;;;323.07;309.33;;;10.70;99.90;;;;;;4362290;32;20167;-65
2022/02/23 12:34:01;;;;;;;320.53;306.50;;;10.70;99.90;;;;;;4364458;32;20176;-65
2022/02/23 12:36:32;;;;;;;323.37;309.73;;;10.80;99.90;;;;;;4362842;32;20613;-64